Terminal Aerodrome Forecast
Issued by NWS Sterling, VA

Current Version | Previous Version | Graphics & Text | Print | Product List | Glossary On
Versions: 1 2 3 4 5 6 7 8 9 10 11 12 13 14 15 16 17 18 19 20 21 22 23 24 25
848
FTUS41 KLWX 031737
TAFIAD
TAF
KIAD 031737Z 0318/0424 36007KT P6SM -SHRA SCT025 BKN070
     FM032300 06005KT P6SM -SHRA BKN030
     FM040300 05004KT P6SM -SHRA OVC015
     FM040500 VRB03KT 4SM -DZ BR OVC008
     FM041900 08005KT P6SM BKN015
     FM042100 11006KT P6SM BKN040
     FM042200 11006KT P6SM OVC015=

USA.gov is the U.S. government's official web portal to all federal, state and local government web resources and services.